Hope A — 9HUZ7 — position and weather

sailwx.info

Track history (hours):
 
Tides and Currents Weather Stations Pressure Air Temp Water Temp Dewpoint Dewpoint Depression Visibility Wind Speed Wind Dir Waves Ship Positions

Hope A

Last reported at 2018-Apr-20 20:56 UTC. Time now 2018-Apr-25 06:46 UTC.
Position N 37°32' E 025°51'.

Length 171 m; draft 9.6 m.

Type: Ship (hazmat cat B). MMSI: 215705000.

Date/timePositionNaut miles runAvg speedWind from/ knotsBaromVisibWave heightAir tempDewpointWater temp
2018-Apr-20 20:56N 37°32' E 025°51'512.0
2018-Apr-20 20:30N 37°27' E 025°54'33911.9
2018-Apr-19 15:59N 34°08' E 031°32'812.8
2018-Apr-19 15:22N 34°04' E 031°40'612.8
2018-Apr-19 14:53N 34°01' E 031°47'612.8
2018-Apr-19 14:23N 33°59' E 031°54'1212.6
2018-Apr-19 13:27N 33°53' E 032°06'2112.6
2018-Apr-19 11:47N 33°43' E 032°29'413.0
2018-Apr-19 11:30N 33°42' E 032°32'712.9
2018-Apr-19 11:00N 33°38' E 032°39'713.0
2018-Apr-19 10:29N 33°34' E 032°45'612.9
2018-Apr-19 10:00N 33°30' E 032°51'713.2
2018-Apr-19 09:29N 33°27' E 032°58'1112.8
2018-Apr-19 08:39N 33°22' E 033°10'212.8
2018-Apr-19 08:31N 33°21' E 033°12'612.9
2018-Apr-19 08:00N 33°19' E 033°19'612.8
2018-Apr-19 07:30N 33°16' E 033°26'612.7
2018-Apr-19 07:01N 33°13' E 033°33'612.8
2018-Apr-19 06:30N 33°11' E 033°40'712.9
2018-Apr-19 06:00N 33°08' E 033°47'612.6
2018-Apr-19 05:30N 33°05' E 033°53'712.6
2018-Apr-19 04:57N 33°03' E 034°01'612.5
2018-Apr-19 04:30N 33°02' E 034°08'612.5
2018-Apr-19 04:00N 33°00' E 034°15'612.7
2018-Apr-19 03:30N 32°59' E 034°22'612.6
2018-Apr-19 03:00N 32°58' E 034°30'612.5
2018-Apr-19 02:30N 32°56' E 034°37'612.9
2018-Apr-19 02:00N 32°55' E 034°44'713.1
2018-Apr-19 01:27N 32°53' E 034°53'  
2018-Apr-15 08:19N 32°51' E 035°00'2 7.1
2018-Apr-15 07:59N 32°53' E 034°58'3 6.6
2018-Apr-15 07:29N 32°55' E 035°00'0 0.7
2018-Apr-15 06:52N 32°55' E 035°01'0 0.1
2018-Apr-15 06:15N 32°55' E 035°01'0 0.0
2018-Apr-15 05:58N 32°55' E 035°01'0 0.0
2018-Apr-15 05:29N 32°55' E 035°01'0 0.0
2018-Apr-15 04:14N 32°55' E 035°01'0 0.0
2018-Apr-15 03:59N 32°55' E 035°01'0 0.0
2018-Apr-15 03:27N 32°55' E 035°01'0 0.0
2018-Apr-15 02:58N 32°55' E 035°01'0 0.0
2018-Apr-15 02:30N 32°55' E 035°01'0 0.2
2018-Apr-15 01:59N 32°55' E 035°01'0 0.0
2018-Apr-15 01:28N 32°55' E 035°01'0 0.0
2018-Apr-15 00:59N 32°55' E 035°01'0 0.0
2018-Apr-15 00:30N 32°55' E 035°01'0 0.0
2018-Apr-14 23:53N 32°55' E 035°01'0 0.0
2018-Apr-14 23:30N 32°55' E 035°01'0 0.0
2018-Apr-14 22:58N 32°55' E 035°01'0 0.0
2018-Apr-14 22:31N 32°55' E 035°01'0 0.0
2018-Apr-14 21:59N 32°55' E 035°01'0 0.0
2018-Apr-14 21:23N 32°55' E 035°01'0 0.0
2018-Apr-14 20:51N 32°55' E 035°01'0 0.1
2018-Apr-14 20:22N 32°55' E 035°01'0 0.1
2018-Apr-14 19:59N 32°55' E 035°01'0 0.0
2018-Apr-14 19:30N 32°55' E 035°01'0 0.0
2018-Apr-14 18:59N 32°55' E 035°01'0 0.0
2018-Apr-14 18:29N 32°55' E 035°01'0 0.0
2018-Apr-14 17:57N 32°55' E 035°01'0 0.0
2018-Apr-14 17:29N 32°55' E 035°01'0 0.0
2018-Apr-14 17:00N 32°55' E 035°01'0 0.0
2018-Apr-14 16:26N 32°55' E 035°01'0 0.0
2018-Apr-14 15:59N 32°55' E 035°01'0 0.0
2018-Apr-14 15:25N 32°55' E 035°01'0 0.0
2018-Apr-14 14:48N 32°55' E 035°01'1 1.2
2018-Apr-14 14:09N 32°55' E 034°60'1 3.4
2018-Apr-14 13:56N 32°55' E 035°01'0 0.0
2018-Apr-14 12:25N 32°55' E 035°01'0 0.0
2018-Apr-14 11:57N 32°55' E 035°01'0 0.0
2018-Apr-14 08:40N 32°55' E 035°01'0 0.0
2018-Apr-14 08:20N 32°55' E 035°01'0 0.0
2018-Apr-14 08:00N 32°55' E 035°01'0 0.1
2018-Apr-14 07:00N 32°55' E 035°01'0 0.0
2018-Apr-14 06:26N 32°55' E 035°01'0 0.0
2018-Apr-14 05:54N 32°55' E 035°01'0 0.0
2018-Apr-14 05:24N 32°55' E 035°01'0 0.0
2018-Apr-14 04:57N 32°55' E 035°01'0 0.0
2018-Apr-14 04:30N 32°55' E 035°01'1 0.7
2018-Apr-14 03:40N 32°56' E 035°01'1 2.9
2018-Apr-14 03:28N 32°55' E 035°01'0 0.0
2018-Apr-14 02:59N 32°55' E 035°01'0 0.0
2018-Apr-14 01:58N 32°55' E 035°01'0 0.0
2018-Apr-14 01:19N 32°55' E 035°01'0 0.0
2018-Apr-14 00:48N 32°55' E 035°01'0 0.0
2018-Apr-14 00:22N 32°55' E 035°01'0 0.0
2018-Apr-14 00:00N 32°55' E 035°01'0 0.0
2018-Apr-13 23:25N 32°55' E 035°01'0 0.1
2018-Apr-13 23:00N 32°55' E 035°01'0 0.0
2018-Apr-13 22:29N 32°55' E 035°01'0 0.0
2018-Apr-13 21:59N 32°55' E 035°01'0 0.0
2018-Apr-13 21:30N 32°55' E 035°01'0 0.0
2018-Apr-13 20:58N 32°55' E 035°01'0 0.0
2018-Apr-13 20:30N 32°55' E 035°01'0 0.0
2018-Apr-13 19:56N 32°55' E 035°01'0 0.0
2018-Apr-13 19:31N 32°55' E 035°01'0 0.0
2018-Apr-13 18:58N 32°55' E 035°01'0 0.0
2018-Apr-13 17:34N 32°55' E 035°01'0 0.2
2018-Apr-13 17:30N 32°55' E 035°01'0 0.0
2018-Apr-13 16:20N 32°55' E 035°01'0 0.0
2018-Apr-13 16:00N 32°55' E 035°01'0 0.0
2018-Apr-13 15:29N 32°55' E 035°01'0 0.0
2018-Apr-13 14:33N 32°55' E 035°01'0 0.0
2018-Apr-13 14:16N 32°55' E 035°01'0 0.0
2018-Apr-13 13:52N 32°55' E 035°01'0 0.0
2018-Apr-13 13:30N 32°55' E 035°01'0 0.4
2018-Apr-13 12:46N 32°55' E 035°00'1 4.0
2018-Apr-13 12:30N 32°55' E 034°59'3 5.7
2018-Apr-13 12:00N 32°53' E 034°58'2 0.1
2018-Apr-12 07:42N 32°51' E 035°00'1 2.3
2018-Apr-12 07:21N 32°51' E 034°60'0 1.0
2018-Apr-12 06:55N 32°52' E 034°59'1 3.0
2018-Apr-12 06:30N 32°52' E 034°58'2 4.7
2018-Apr-12 06:00N 32°53' E 034°55'4 7.1
2018-Apr-12 05:30N 32°53' E 034°51'611.6
2018-Apr-12 04:59N 32°55' E 034°44'  
Track history (hours):
 
Tides and Currents Weather Stations Pressure Air Temp Water Temp Dewpoint Dewpoint Depression Visibility Wind Speed Wind Dir Waves Ship Positions

Hope A

Last reported at 2018-Apr-20 20:56 UTC. Time now 2018-Apr-25 06:46 UTC.
Position N 37°32' E 025°51'.

Length 171 m; draft 9.6 m.

Type: Ship (hazmat cat B). MMSI: 215705000.

Date/timePositionNaut miles runAvg speedWind from/ knotsBaromVisibWave heightAir tempDewpointWater temp
2018-Apr-20 20:56N 37°32' E 025°51'512.0
2018-Apr-20 20:30N 37°27' E 025°54'33911.9
2018-Apr-19 15:59N 34°08' E 031°32'812.8
2018-Apr-19 15:22N 34°04' E 031°40'612.8
2018-Apr-19 14:53N 34°01' E 031°47'612.8
2018-Apr-19 14:23N 33°59' E 031°54'1212.6
2018-Apr-19 13:27N 33°53' E 032°06'2112.6
2018-Apr-19 11:47N 33°43' E 032°29'413.0
2018-Apr-19 11:30N 33°42' E 032°32'712.9
2018-Apr-19 11:00N 33°38' E 032°39'713.0
2018-Apr-19 10:29N 33°34' E 032°45'612.9
2018-Apr-19 10:00N 33°30' E 032°51'713.2
2018-Apr-19 09:29N 33°27' E 032°58'1112.8
2018-Apr-19 08:39N 33°22' E 033°10'212.8
2018-Apr-19 08:31N 33°21' E 033°12'612.9
2018-Apr-19 08:00N 33°19' E 033°19'612.8
2018-Apr-19 07:30N 33°16' E 033°26'612.7
2018-Apr-19 07:01N 33°13' E 033°33'612.8
2018-Apr-19 06:30N 33°11' E 033°40'712.9
2018-Apr-19 06:00N 33°08' E 033°47'612.6
2018-Apr-19 05:30N 33°05' E 033°53'712.6
2018-Apr-19 04:57N 33°03' E 034°01'612.5
2018-Apr-19 04:30N 33°02' E 034°08'612.5
2018-Apr-19 04:00N 33°00' E 034°15'612.7
2018-Apr-19 03:30N 32°59' E 034°22'612.6
2018-Apr-19 03:00N 32°58' E 034°30'612.5
2018-Apr-19 02:30N 32°56' E 034°37'612.9
2018-Apr-19 02:00N 32°55' E 034°44'713.1
2018-Apr-19 01:27N 32°53' E 034°53'  
2018-Apr-15 08:19N 32°51' E 035°00'2 7.1
2018-Apr-15 07:59N 32°53' E 034°58'3 6.6
2018-Apr-15 07:29N 32°55' E 035°00'0 0.7
2018-Apr-15 06:52N 32°55' E 035°01'0 0.1
2018-Apr-15 06:15N 32°55' E 035°01'0 0.0
2018-Apr-15 05:58N 32°55' E 035°01'0 0.0
2018-Apr-15 05:29N 32°55' E 035°01'0 0.0
2018-Apr-15 04:14N 32°55' E 035°01'0 0.0
2018-Apr-15 03:59N 32°55' E 035°01'0 0.0
2018-Apr-15 03:27N 32°55' E 035°01'0 0.0
2018-Apr-15 02:58N 32°55' E 035°01'0 0.0
2018-Apr-15 02:30N 32°55' E 035°01'0 0.2
2018-Apr-15 01:59N 32°55' E 035°01'0 0.0
2018-Apr-15 01:28N 32°55' E 035°01'0 0.0
2018-Apr-15 00:59N 32°55' E 035°01'0 0.0
2018-Apr-15 00:30N 32°55' E 035°01'0 0.0
2018-Apr-14 23:53N 32°55' E 035°01'0 0.0
2018-Apr-14 23:30N 32°55' E 035°01'0 0.0
2018-Apr-14 22:58N 32°55' E 035°01'0 0.0
2018-Apr-14 22:31N 32°55' E 035°01'0 0.0
2018-Apr-14 21:59N 32°55' E 035°01'0 0.0
2018-Apr-14 21:23N 32°55' E 035°01'0 0.0
2018-Apr-14 20:51N 32°55' E 035°01'0 0.1
2018-Apr-14 20:22N 32°55' E 035°01'0 0.1
2018-Apr-14 19:59N 32°55' E 035°01'0 0.0
2018-Apr-14 19:30N 32°55' E 035°01'0 0.0
2018-Apr-14 18:59N 32°55' E 035°01'0 0.0
2018-Apr-14 18:29N 32°55' E 035°01'0 0.0
2018-Apr-14 17:57N 32°55' E 035°01'0 0.0
2018-Apr-14 17:29N 32°55' E 035°01'0 0.0
2018-Apr-14 17:00N 32°55' E 035°01'0 0.0
2018-Apr-14 16:26N 32°55' E 035°01'0 0.0
2018-Apr-14 15:59N 32°55' E 035°01'0 0.0
2018-Apr-14 15:25N 32°55' E 035°01'0 0.0
2018-Apr-14 14:48N 32°55' E 035°01'1 1.2
2018-Apr-14 14:09N 32°55' E 034°60'1 3.4
2018-Apr-14 13:56N 32°55' E 035°01'0 0.0
2018-Apr-14 12:25N 32°55' E 035°01'0 0.0
2018-Apr-14 11:57N 32°55' E 035°01'0 0.0
2018-Apr-14 08:40N 32°55' E 035°01'0 0.0
2018-Apr-14 08:20N 32°55' E 035°01'0 0.0
2018-Apr-14 08:00N 32°55' E 035°01'0 0.1
2018-Apr-14 07:00N 32°55' E 035°01'0 0.0
2018-Apr-14 06:26N 32°55' E 035°01'0 0.0
2018-Apr-14 05:54N 32°55' E 035°01'0 0.0
2018-Apr-14 05:24N 32°55' E 035°01'0 0.0
2018-Apr-14 04:57N 32°55' E 035°01'0 0.0
2018-Apr-14 04:30N 32°55' E 035°01'1 0.7
2018-Apr-14 03:40N 32°56' E 035°01'1 2.9
2018-Apr-14 03:28N 32°55' E 035°01'0 0.0
2018-Apr-14 02:59N 32°55' E 035°01'0 0.0
2018-Apr-14 01:58N 32°55' E 035°01'0 0.0
2018-Apr-14 01:19N 32°55' E 035°01'0 0.0
2018-Apr-14 00:48N 32°55' E 035°01'0 0.0
2018-Apr-14 00:22N 32°55' E 035°01'0 0.0
2018-Apr-14 00:00N 32°55' E 035°01'0 0.0
2018-Apr-13 23:25N 32°55' E 035°01'0 0.1
2018-Apr-13 23:00N 32°55' E 035°01'0 0.0
2018-Apr-13 22:29N 32°55' E 035°01'0 0.0
2018-Apr-13 21:59N 32°55' E 035°01'0 0.0
2018-Apr-13 21:30N 32°55' E 035°01'0 0.0
2018-Apr-13 20:58N 32°55' E 035°01'0 0.0
2018-Apr-13 20:30N 32°55' E 035°01'0 0.0
2018-Apr-13 19:56N 32°55' E 035°01'0 0.0
2018-Apr-13 19:31N 32°55' E 035°01'0 0.0
2018-Apr-13 18:58N 32°55' E 035°01'0 0.0
2018-Apr-13 17:34N 32°55' E 035°01'0 0.2
2018-Apr-13 17:30N 32°55' E 035°01'0 0.0
2018-Apr-13 16:20N 32°55' E 035°01'0 0.0
2018-Apr-13 16:00N 32°55' E 035°01'0 0.0
2018-Apr-13 15:29N 32°55' E 035°01'0 0.0
2018-Apr-13 14:33N 32°55' E 035°01'0 0.0
2018-Apr-13 14:16N 32°55' E 035°01'0 0.0
2018-Apr-13 13:52N 32°55' E 035°01'0 0.0
2018-Apr-13 13:30N 32°55' E 035°01'0 0.4
2018-Apr-13 12:46N 32°55' E 035°00'1 4.0
2018-Apr-13 12:30N 32°55' E 034°59'3 5.7
2018-Apr-13 12:00N 32°53' E 034°58'2 0.1
2018-Apr-12 07:42N 32°51' E 035°00'1 2.3
2018-Apr-12 07:21N 32°51' E 034°60'0 1.0
2018-Apr-12 06:55N 32°52' E 034°59'1 3.0
2018-Apr-12 06:30N 32°52' E 034°58'2 4.7
2018-Apr-12 06:00N 32°53' E 034°55'4 7.1
2018-Apr-12 05:30N 32°53' E 034°51'611.6
2018-Apr-12 04:59N 32°55' E 034°44'  

Dump ship's entire track history